»·PEaware :: SWA5996 KBUR-KSFO

SWA5996 :: KBUR-KSFO

FLIGHT INFORMATION

Flight Status: Arrived
Operator:
Southwest Airlines
More flights by this operator :: More flights under this callsign
Pilot: Patricio R. (14780)
Aircraft: BOEING 737-200
(B732)
More flights by this aircraft type
Origin: KBUR Bob Hope-Burbank
United States
Destination: KSFO San Francisco Intl
United States
More flights between these airports :: More routes between these airports
Route: +VNY3 AVE BSR BSR3
File this flight plan on PilotEdge
Remarks: PBN / A1B2 DOF / 181003 REG / N275SB EET / KZOA0023 OPR / SWA RMK / TCAS SIMBRIEF
Altitude:
(Current/Filed)
32,000ft
Speed:
(Current/Filed)
439kts
Departed: 02-Oct-18 04:56 PM
Arrived: 02-Oct-18 05:58 PM
Distance/Time
Traveled:
283nm/1:02
Distance/Time
To Go:
Arrived

Flight Plot

Page will automatically refresh every two minutes.

Flight plan parsing failed; only flown route is shown


Map Options




Map Legend


Flown Route
Filed Route
Departure Airport
Arrival Airport
Navaid (VOR, NDB)
Fix

Horizontal Profiles

Position Reports

Time Latitude Longitude Heading Altitude Ground
Speed
02-Oct-18 16:40 34.196765 -118.351975 180 785ft 0kts
02-Oct-18 16:41 34.196765 -118.351975 180 785ft 0kts
02-Oct-18 16:42 34.196765 -118.351975 180 785ft 0kts
02-Oct-18 16:43 34.196765 -118.351975 180 785ft 0kts
02-Oct-18 16:44 34.196765 -118.351975 180 785ft 0kts
02-Oct-18 16:45 34.196765 -118.351975 180 785ft 0kts
02-Oct-18 16:46 34.196765 -118.351975 180 785ft 0kts
02-Oct-18 16:47 34.196765 -118.351975 180 785ft 0kts
02-Oct-18 16:48 34.196765 -118.351975 180 785ft 0kts
02-Oct-18 16:49 34.196765 -118.351975 180 785ft 0kts
02-Oct-18 16:50 34.196765 -118.351975 180 785ft 0kts
02-Oct-18 16:51 34.196761 -118.351975 180 785ft 0kts
02-Oct-18 16:52 34.197172 -118.351602 265 785ft 2kts
02-Oct-18 16:53 34.197173 -118.351534 271 785ft 0kts
02-Oct-18 16:54 34.197229 -118.353747 284 785ft 12kts
02-Oct-18 16:55 34.200980 -118.355966 347 785ft 23kts
02-Oct-18 16:56 34.208364 -118.358013 347 785ft 26kts
02-Oct-18 16:57 34.212075 -118.359679 314 785ft 9kts
02-Oct-18 16:58 34.195770 -118.355880 167 914ft 153kts
02-Oct-18 16:59 34.155089 -118.376274 224 2795ft 209kts
02-Oct-18 17:00 34.132883 -118.444460 271 4741ft 273kts
02-Oct-18 17:01 34.172948 -118.516434 331 7674ft 295kts
02-Oct-18 17:02 34.244796 -118.567168 322 10172ft 308kts
02-Oct-18 17:03 34.319132 -118.619705 335 12531ft 320kts
02-Oct-18 17:04 34.401739 -118.660809 333 14528ft 332kts
02-Oct-18 17:05 34.484469 -118.702754 333 16305ft 344kts
02-Oct-18 17:06 34.573898 -118.748221 332 18005ft 354kts
02-Oct-18 17:07 34.666362 -118.793997 332 19512ft 365kts
02-Oct-18 17:08 34.761536 -118.840809 332 20834ft 377kts
02-Oct-18 17:09 34.854199 -118.899005 316 22005ft 377kts
02-Oct-18 17:10 34.941116 -118.973744 318 23132ft 387kts
02-Oct-18 17:11 35.015943 -119.036181 319 23968ft 395kts
02-Oct-18 17:12 35.122297 -119.124109 319 25108ft 402kts
02-Oct-18 17:13 35.199115 -119.187368 318 25789ft 406kts
02-Oct-18 17:14 35.292757 -119.265170 318 26568ft 410kts
02-Oct-18 17:15 35.387220 -119.344038 318 27274ft 414kts
02-Oct-18 17:16 35.482651 -119.424032 318 27841ft 421kts
02-Oct-18 17:17 35.577024 -119.511288 297 27849ft 418kts
02-Oct-18 17:18 35.596065 -119.639766 267 27845ft 385kts
02-Oct-18 17:19 35.612118 -119.770807 271 27848ft 392kts
02-Oct-18 17:20 35.633845 -119.903001 273 27876ft 395kts
02-Oct-18 17:21 35.662047 -120.033604 284 27918ft 407kts
02-Oct-18 17:22 35.706169 -120.161314 283 27897ft 408kts
02-Oct-18 17:23 35.751420 -120.289767 283 27901ft 409kts
02-Oct-18 17:24 35.794070 -120.419103 283 27902ft 410kts
02-Oct-18 17:25 35.836408 -120.549788 283 27902ft 410kts
02-Oct-18 17:26 35.878030 -120.679852 282 27908ft 410kts
02-Oct-18 17:27 35.919427 -120.811195 282 27906ft 412kts
02-Oct-18 17:28 35.961375 -120.943011 282 27906ft 413kts
02-Oct-18 17:29 36.003286 -121.075215 283 27904ft 414kts
02-Oct-18 17:30 36.045114 -121.207644 284 27894ft 416kts
02-Oct-18 17:31 36.087188 -121.341510 284 27872ft 418kts
02-Oct-18 17:32 36.129340 -121.473212 285 27847ft 419kts
02-Oct-18 17:33 36.172528 -121.607236 285 27847ft 419kts
02-Oct-18 17:34 36.241757 -121.720776 330 27868ft 448kts
02-Oct-18 17:35 36.343669 -121.788729 322 27730ft 411kts
02-Oct-18 17:36 36.437208 -121.866177 320 25738ft 401kts
02-Oct-18 17:37 36.539837 -121.912303 347 23864ft 401kts
02-Oct-18 17:38 36.647637 -121.938629 346 22067ft 389kts
02-Oct-18 17:39 36.751635 -121.965460 346 20369ft 378kts
02-Oct-18 17:40 36.852868 -121.991907 346 18700ft 367kts
02-Oct-18 17:41 36.951232 -122.017720 347 17081ft 357kts
02-Oct-18 17:42 37.046688 -122.042826 347 15609ft 344kts
02-Oct-18 17:43 37.137880 -122.066806 347 14124ft 332kts
02-Oct-18 17:44 37.228338 -122.073548 3 12512ft 325kts
02-Oct-18 17:45 37.317611 -122.068230 3 10968ft 318kts
02-Oct-18 17:46 37.401572 -122.061003 3 9566ft 310kts
02-Oct-18 17:47 37.485956 -122.051704 3 8174ft 300kts
02-Oct-18 17:48 37.566020 -122.041713 3 6839ft 292kts
02-Oct-18 17:49 37.644885 -122.028713 22 5527ft 286kts
02-Oct-18 17:50 37.662440 -121.944721 131 4121ft 278kts
02-Oct-18 17:51 37.599403 -121.940280 203 3974ft 239kts
02-Oct-18 17:52 37.537041 -121.968967 203 3973ft 238kts
02-Oct-18 17:53 37.490071 -122.014587 261 3995ft 224kts
02-Oct-18 17:54 37.498426 -122.088388 295 3981ft 224kts
02-Oct-18 17:55 37.527326 -122.158039 296 3540ft 233kts
02-Oct-18 17:56 37.556479 -122.227143 296 2335ft 208kts
02-Oct-18 17:57 37.579409 -122.281516 296 1363ft 150kts
02-Oct-18 17:58 37.596556 -122.322038 296 665ft 124kts
02-Oct-18 17:59 37.612552 -122.360355 297 26ft 124kts
02-Oct-18 18:00 37.618939 -122.378256 268 14ft 0kts
02-Oct-18 18:01 37.618939 -122.378262 268 14ft 1kts
02-Oct-18 18:02 37.617456 -122.379465 177 15ft 14kts
02-Oct-18 18:03 37.612954 -122.382077 206 17ft 10kts
02-Oct-18 18:04 37.612840 -122.383208 297 18ft 0kts
02-Oct-18 18:05 37.612840 -122.383208 297 18ft 0kts
02-Oct-18 18:06 37.612840 -122.383208 297 18ft 0kts
02-Oct-18 18:07 37.612840 -122.383208 297 18ft 0kts
02-Oct-18 18:08 37.612840 -122.383208 297 18ft 0kts
02-Oct-18 18:09 37.612840 -122.383208 297 18ft 0kts
02-Oct-18 18:10 37.612840 -122.383208 297 18ft 0kts
02-Oct-18 18:11 37.612840 -122.383208 297 18ft 0kts

Navigation Log

Ident Type
Flight plan parsing failed, navigation log unavailable